sensor_id;sensor_type;location;lat;lon;timestamp;P1;durP1;ratioP1;P2;durP2;ratioP2
74577;SDS011;75151;49.086;33.418;2024-03-06T00:01:56;17.40;;;7.03;;
74577;SDS011;75151;49.086;33.418;2024-03-06T00:04:23;18.27;;;7.15;;
74577;SDS011;75151;49.086;33.418;2024-03-06T00:06:50;14.43;;;7.13;;
74577;SDS011;75151;49.086;33.418;2024-03-06T00:09:19;21.90;;;7.63;;
74577;SDS011;75151;49.086;33.418;2024-03-06T00:11:46;15.38;;;7.43;;
74577;SDS011;75151;49.086;33.418;2024-03-06T00:14:13;20.20;;;7.70;;
74577;SDS011;75151;49.086;33.418;2024-03-06T00:16:39;17.80;;;7.82;;
74577;SDS011;75151;49.086;33.418;2024-03-06T00:19:06;16.33;;;7.45;;
74577;SDS011;75151;49.086;33.418;2024-03-06T00:21:33;13.70;;;7.75;;
74577;SDS011;75151;49.086;33.418;2024-03-06T00:24:00;15.07;;;7.30;;
74577;SDS011;75151;49.086;33.418;2024-03-06T00:26:27;19.63;;;7.72;;
74577;SDS011;75151;49.086;33.418;2024-03-06T00:28:53;20.17;;;8.77;;
74577;SDS011;75151;49.086;33.418;2024-03-06T00:31:20;21.63;;;8.23;;
74577;SDS011;75151;49.086;33.418;2024-03-06T00:33:47;18.27;;;7.88;;
74577;SDS011;75151;49.086;33.418;2024-03-06T00:36:14;20.23;;;7.90;;
74577;SDS011;75151;49.086;33.418;2024-03-06T00:38:41;16.42;;;7.72;;
74577;SDS011;75151;49.086;33.418;2024-03-06T00:41:08;22.02;;;8.10;;
74577;SDS011;75151;49.086;33.418;2024-03-06T00:43:35;21.42;;;8.25;;
74577;SDS011;75151;49.086;33.418;2024-03-06T00:46:02;16.10;;;8.40;;
74577;SDS011;75151;49.086;33.418;2024-03-06T00:48:28;20.85;;;8.30;;
74577;SDS011;75151;49.086;33.418;2024-03-06T00:50:55;17.80;;;8.52;;
74577;SDS011;75151;49.086;33.418;2024-03-06T00:53:22;24.52;;;10.35;;
74577;SDS011;75151;49.086;33.418;2024-03-06T00:55:50;18.73;;;8.52;;
74577;SDS011;75151;49.086;33.418;2024-03-06T00:58:17;16.98;;;7.70;;
74577;SDS011;75151;49.086;33.418;2024-03-06T01:00:44;20.15;;;8.27;;
74577;SDS011;75151;49.086;33.418;2024-03-06T01:03:11;21.77;;;8.35;;
74577;SDS011;75151;49.086;33.418;2024-03-06T01:05:37;19.38;;;7.70;;
74577;SDS011;75151;49.086;33.418;2024-03-06T01:08:04;21.77;;;8.40;;
74577;SDS011;75151;49.086;33.418;2024-03-06T01:10:31;19.95;;;8.70;;
74577;SDS011;75151;49.086;33.418;2024-03-06T01:12:58;25.95;;;9.75;;
74577;SDS011;75151;49.086;33.418;2024-03-06T01:15:25;21.02;;;7.72;;
74577;SDS011;75151;49.086;33.418;2024-03-06T01:17:52;17.52;;;7.63;;
74577;SDS011;75151;49.086;33.418;2024-03-06T01:20:18;23.02;;;8.35;;
74577;SDS011;75151;49.086;33.418;2024-03-06T01:22:46;19.75;;;7.97;;
74577;SDS011;75151;49.086;33.418;2024-03-06T01:25:13;19.20;;;8.35;;
74577;SDS011;75151;49.086;33.418;2024-03-06T01:27:40;16.30;;;8.07;;
74577;SDS011;75151;49.086;33.418;2024-03-06T01:30:07;18.65;;;8.07;;
74577;SDS011;75151;49.086;33.418;2024-03-06T01:32:34;15.95;;;8.60;;
74577;SDS011;75151;49.086;33.418;2024-03-06T01:35:01;20.33;;;8.48;;
74577;SDS011;75151;49.086;33.418;2024-03-06T01:37:28;18.10;;;8.98;;
74577;SDS011;75151;49.086;33.418;2024-03-06T01:39:54;18.48;;;7.78;;
74577;SDS011;75151;49.086;33.418;2024-03-06T01:42:21;20.45;;;8.88;;
74577;SDS011;75151;49.086;33.418;2024-03-06T01:44:48;20.83;;;9.25;;
74577;SDS011;75151;49.086;33.418;2024-03-06T01:47:15;18.20;;;8.25;;
74577;SDS011;75151;49.086;33.418;2024-03-06T01:49:42;21.90;;;8.68;;
74577;SDS011;75151;49.086;33.418;2024-03-06T01:52:11;18.75;;;8.23;;
74577;SDS011;75151;49.086;33.418;2024-03-06T01:54:41;18.02;;;8.05;;
74577;SDS011;75151;49.086;33.418;2024-03-06T01:57:09;22.75;;;8.40;;
74577;SDS011;75151;49.086;33.418;2024-03-06T01:59:37;22.77;;;9.13;;
74577;SDS011;75151;49.086;33.418;2024-03-06T02:02:04;18.45;;;8.23;;
74577;SDS011;75151;49.086;33.418;2024-03-06T02:04:34;29.15;;;8.95;;
74577;SDS011;75151;49.086;33.418;2024-03-06T02:07:01;20.77;;;8.68;;
74577;SDS011;75151;49.086;33.418;2024-03-06T02:09:29;19.88;;;8.25;;
74577;SDS011;75151;49.086;33.418;2024-03-06T02:11:56;16.80;;;8.23;;
74577;SDS011;75151;49.086;33.418;2024-03-06T02:14:23;19.38;;;8.70;;
74577;SDS011;75151;49.086;33.418;2024-03-06T02:16:50;21.70;;;8.95;;
74577;SDS011;75151;49.086;33.418;2024-03-06T02:19:16;22.67;;;8.45;;
74577;SDS011;75151;49.086;33.418;2024-03-06T02:21:43;24.77;;;9.52;;
74577;SDS011;75151;49.086;33.418;2024-03-06T02:24:10;21.70;;;8.90;;
74577;SDS011;75151;49.086;33.418;2024-03-06T02:26:39;25.77;;;9.25;;
74577;SDS011;75151;49.086;33.418;2024-03-06T02:29:06;21.05;;;8.52;;
74577;SDS011;75151;49.086;33.418;2024-03-06T02:31:33;20.38;;;8.80;;
74577;SDS011;75151;49.086;33.418;2024-03-06T02:34:00;20.08;;;8.98;;
74577;SDS011;75151;49.086;33.418;2024-03-06T02:36:31;23.35;;;9.10;;
74577;SDS011;75151;49.086;33.418;2024-03-06T02:38:58;24.20;;;8.98;;
74577;SDS011;75151;49.086;33.418;2024-03-06T02:41:25;21.35;;;9.20;;
74577;SDS011;75151;49.086;33.418;2024-03-06T02:43:52;18.50;;;8.57;;
74577;SDS011;75151;49.086;33.418;2024-03-06T02:46:19;18.52;;;8.10;;
74577;SDS011;75151;49.086;33.418;2024-03-06T02:48:45;18.65;;;8.18;;
74577;SDS011;75151;49.086;33.418;2024-03-06T02:51:17;17.00;;;7.30;;
74577;SDS011;75151;49.086;33.418;2024-03-06T02:53:44;19.70;;;8.45;;
74577;SDS011;75151;49.086;33.418;2024-03-06T02:56:20;21.55;;;9.23;;
74577;SDS011;75151;49.086;33.418;2024-03-06T02:58:47;22.15;;;8.93;;
74577;SDS011;75151;49.086;33.418;2024-03-06T03:01:15;19.42;;;8.27;;
74577;SDS011;75151;49.086;33.418;2024-03-06T03:03:42;18.25;;;8.77;;
74577;SDS011;75151;49.086;33.418;2024-03-06T03:06:10;25.00;;;9.98;;
74577;SDS011;75151;49.086;33.418;2024-03-06T03:08:37;21.17;;;8.75;;
74577;SDS011;75151;49.086;33.418;2024-03-06T03:11:04;20.60;;;8.60;;
74577;SDS011;75151;49.086;33.418;2024-03-06T03:13:31;24.25;;;8.65;;
74577;SDS011;75151;49.086;33.418;2024-03-06T03:15:58;23.73;;;8.65;;
74577;SDS011;75151;49.086;33.418;2024-03-06T03:18:25;24.55;;;8.68;;
74577;SDS011;75151;49.086;33.418;2024-03-06T03:20:52;25.30;;;8.52;;
74577;SDS011;75151;49.086;33.418;2024-03-06T03:23:18;20.55;;;8.65;;
74577;SDS011;75151;49.086;33.418;2024-03-06T03:25:49;24.00;;;7.88;;
74577;SDS011;75151;49.086;33.418;2024-03-06T03:28:15;24.30;;;8.43;;
74577;SDS011;75151;49.086;33.418;2024-03-06T03:30:43;21.05;;;8.02;;
74577;SDS011;75151;49.086;33.418;2024-03-06T03:33:10;21.38;;;8.52;;
74577;SDS011;75151;49.086;33.418;2024-03-06T03:35:37;17.08;;;7.95;;
74577;SDS011;75151;49.086;33.418;2024-03-06T03:38:04;19.40;;;8.73;;
74577;SDS011;75151;49.086;33.418;2024-03-06T03:40:31;22.52;;;8.45;;
74577;SDS011;75151;49.086;33.418;2024-03-06T03:42:59;20.33;;;8.20;;
74577;SDS011;75151;49.086;33.418;2024-03-06T03:45:32;17.65;;;7.95;;
74577;SDS011;75151;49.086;33.418;2024-03-06T03:48:02;26.65;;;8.23;;
74577;SDS011;75151;49.086;33.418;2024-03-06T03:50:29;26.23;;;8.15;;
74577;SDS011;75151;49.086;33.418;2024-03-06T03:52:56;19.98;;;7.53;;
74577;SDS011;75151;49.086;33.418;2024-03-06T03:55:24;22.50;;;7.85;;
74577;SDS011;75151;49.086;33.418;2024-03-06T03:57:51;18.95;;;7.80;;
74577;SDS011;75151;49.086;33.418;2024-03-06T04:00:18;21.52;;;8.02;;
74577;SDS011;75151;49.086;33.418;2024-03-06T04:02:45;17.88;;;7.90;;
74577;SDS011;75151;49.086;33.418;2024-03-06T04:05:12;23.52;;;8.70;;
74577;SDS011;75151;49.086;33.418;2024-03-06T04:07:39;19.05;;;7.93;;
74577;SDS011;75151;49.086;33.418;2024-03-06T04:10:06;24.48;;;8.95;;
74577;SDS011;75151;49.086;33.418;2024-03-06T04:12:37;23.55;;;8.70;;
74577;SDS011;75151;49.086;33.418;2024-03-06T04:15:05;22.08;;;9.15;;
74577;SDS011;75151;49.086;33.418;2024-03-06T04:17:32;22.33;;;8.45;;
74577;SDS011;75151;49.086;33.418;2024-03-06T04:19:58;23.65;;;8.35;;
74577;SDS011;75151;49.086;33.418;2024-03-06T04:22:26;21.77;;;8.75;;
74577;SDS011;75151;49.086;33.418;2024-03-06T04:24:53;24.10;;;8.43;;
74577;SDS011;75151;49.086;33.418;2024-03-06T04:27:21;21.60;;;8.75;;
74577;SDS011;75151;49.086;33.418;2024-03-06T04:29:48;24.60;;;8.70;;
74577;SDS011;75151;49.086;33.418;2024-03-06T04:32:14;11.07;;;5.28;;
74577;SDS011;75151;49.086;33.418;2024-03-06T04:34:41;21.83;;;8.50;;
74577;SDS011;75151;49.086;33.418;2024-03-06T04:37:08;24.88;;;9.32;;
74577;SDS011;75151;49.086;33.418;2024-03-06T04:39:35;25.52;;;9.25;;
74577;SDS011;75151;49.086;33.418;2024-03-06T04:42:02;23.88;;;9.60;;
74577;SDS011;75151;49.086;33.418;2024-03-06T04:44:29;23.00;;;8.88;;
74577;SDS011;75151;49.086;33.418;2024-03-06T04:46:59;24.20;;;8.15;;
74577;SDS011;75151;49.086;33.418;2024-03-06T04:49:25;26.33;;;9.82;;
74577;SDS011;75151;49.086;33.418;2024-03-06T04:51:52;23.73;;;8.32;;
74577;SDS011;75151;49.086;33.418;2024-03-06T04:54:19;21.75;;;8.80;;
74577;SDS011;75151;49.086;33.418;2024-03-06T04:56:46;20.00;;;8.70;;
74577;SDS011;75151;49.086;33.418;2024-03-06T04:59:12;24.92;;;9.18;;
74577;SDS011;75151;49.086;33.418;2024-03-06T05:01:40;27.70;;;9.82;;
74577;SDS011;75151;49.086;33.418;2024-03-06T05:04:07;25.17;;;9.73;;
74577;SDS011;75151;49.086;33.418;2024-03-06T05:06:50;22.13;;;9.30;;
74577;SDS011;75151;49.086;33.418;2024-03-06T05:09:35;24.48;;;9.45;;
74577;SDS011;75151;49.086;33.418;2024-03-06T05:12:19;27.05;;;9.65;;
74577;SDS011;75151;49.086;33.418;2024-03-06T05:15:04;26.38;;;9.48;;
74577;SDS011;75151;49.086;33.418;2024-03-06T05:17:48;23.17;;;9.00;;
74577;SDS011;75151;49.086;33.418;2024-03-06T05:20:33;23.20;;;10.00;;
74577;SDS011;75151;49.086;33.418;2024-03-06T05:23:17;31.10;;;11.38;;
74577;SDS011;75151;49.086;33.418;2024-03-06T05:26:01;26.65;;;10.05;;
74577;SDS011;75151;49.086;33.418;2024-03-06T05:28:45;25.45;;;10.13;;
74577;SDS011;75151;49.086;33.418;2024-03-06T05:31:29;31.05;;;10.15;;
74577;SDS011;75151;49.086;33.418;2024-03-06T05:34:14;25.27;;;9.52;;
74577;SDS011;75151;49.086;33.418;2024-03-06T05:36:58;30.63;;;10.52;;
74577;SDS011;75151;49.086;33.418;2024-03-06T05:39:42;32.03;;;10.93;;
74577;SDS011;75151;49.086;33.418;2024-03-06T05:42:26;26.90;;;9.23;;
74577;SDS011;75151;49.086;33.418;2024-03-06T05:45:10;24.15;;;8.85;;
74577;SDS011;75151;49.086;33.418;2024-03-06T05:47:55;23.55;;;8.75;;
74577;SDS011;75151;49.086;33.418;2024-03-06T05:50:39;26.50;;;9.20;;
74577;SDS011;75151;49.086;33.418;2024-03-06T05:53:23;34.85;;;9.85;;
74577;SDS011;75151;49.086;33.418;2024-03-06T05:56:07;28.02;;;9.45;;
74577;SDS011;75151;49.086;33.418;2024-03-06T05:58:51;25.25;;;8.45;;
74577;SDS011;75151;49.086;33.418;2024-03-06T06:01:19;29.77;;;10.38;;
74577;SDS011;75151;49.086;33.418;2024-03-06T06:03:47;27.08;;;9.95;;
74577;SDS011;75151;49.086;33.418;2024-03-06T06:06:17;21.13;;;8.63;;
74577;SDS011;75151;49.086;33.418;2024-03-06T06:08:47;27.55;;;10.20;;
74577;SDS011;75151;49.086;33.418;2024-03-06T06:11:14;22.08;;;9.27;;
74577;SDS011;75151;49.086;33.418;2024-03-06T06:13:41;23.00;;;8.50;;
74577;SDS011;75151;49.086;33.418;2024-03-06T06:16:08;22.48;;;8.38;;
74577;SDS011;75151;49.086;33.418;2024-03-06T06:18:35;20.65;;;8.30;;
74577;SDS011;75151;49.086;33.418;2024-03-06T06:21:02;26.65;;;8.40;;
74577;SDS011;75151;49.086;33.418;2024-03-06T06:23:34;30.52;;;10.50;;
74577;SDS011;75151;49.086;33.418;2024-03-06T06:26:01;20.42;;;9.02;;
74577;SDS011;75151;49.086;33.418;2024-03-06T06:28:28;24.00;;;8.50;;
74577;SDS011;75151;49.086;33.418;2024-03-06T06:30:55;26.90;;;8.25;;
74577;SDS011;75151;49.086;33.418;2024-03-06T06:33:21;24.45;;;8.60;;
74577;SDS011;75151;49.086;33.418;2024-03-06T06:35:48;19.67;;;8.48;;
74577;SDS011;75151;49.086;33.418;2024-03-06T06:38:15;27.17;;;8.77;;
74577;SDS011;75151;49.086;33.418;2024-03-06T06:40:42;24.38;;;8.27;;
74577;SDS011;75151;49.086;33.418;2024-03-06T06:43:08;19.58;;;8.23;;
74577;SDS011;75151;49.086;33.418;2024-03-06T06:45:35;24.42;;;8.88;;
74577;SDS011;75151;49.086;33.418;2024-03-06T06:48:04;26.60;;;8.07;;
74577;SDS011;75151;49.086;33.418;2024-03-06T06:50:32;26.10;;;8.52;;
74577;SDS011;75151;49.086;33.418;2024-03-06T06:53:00;25.75;;;9.05;;
74577;SDS011;75151;49.086;33.418;2024-03-06T06:55:27;16.02;;;6.95;;
74577;SDS011;75151;49.086;33.418;2024-03-06T06:57:54;25.05;;;8.32;;
74577;SDS011;75151;49.086;33.418;2024-03-06T07:00:22;21.67;;;8.32;;
74577;SDS011;75151;49.086;33.418;2024-03-06T07:02:49;23.85;;;9.27;;
74577;SDS011;75151;49.086;33.418;2024-03-06T07:05:17;23.05;;;8.57;;
74577;SDS011;75151;49.086;33.418;2024-03-06T07:07:45;18.58;;;7.78;;
74577;SDS011;75151;49.086;33.418;2024-03-06T07:10:12;26.08;;;8.80;;
74577;SDS011;75151;49.086;33.418;2024-03-06T07:12:40;25.83;;;9.43;;
74577;SDS011;75151;49.086;33.418;2024-03-06T07:15:07;27.05;;;9.73;;
74577;SDS011;75151;49.086;33.418;2024-03-06T07:17:34;24.08;;;9.43;;
74577;SDS011;75151;49.086;33.418;2024-03-06T07:20:01;31.10;;;9.32;;
74577;SDS011;75151;49.086;33.418;2024-03-06T07:22:28;31.10;;;9.40;;
74577;SDS011;75151;49.086;33.418;2024-03-06T07:24:54;24.83;;;9.30;;
74577;SDS011;75151;49.086;33.418;2024-03-06T07:27:21;22.90;;;9.45;;
74577;SDS011;75151;49.086;33.418;2024-03-06T07:29:48;29.33;;;10.65;;
74577;SDS011;75151;49.086;33.418;2024-03-06T07:32:15;21.65;;;9.82;;
74577;SDS011;75151;49.086;33.418;2024-03-06T07:34:43;23.23;;;9.10;;
74577;SDS011;75151;49.086;33.418;2024-03-06T07:37:13;21.33;;;8.60;;
74577;SDS011;75151;49.086;33.418;2024-03-06T07:39:41;24.13;;;9.60;;
74577;SDS011;75151;49.086;33.418;2024-03-06T07:42:08;22.90;;;9.55;;
74577;SDS011;75151;49.086;33.418;2024-03-06T07:44:36;21.77;;;9.65;;
74577;SDS011;75151;49.086;33.418;2024-03-06T07:47:03;21.02;;;9.15;;
74577;SDS011;75151;49.086;33.418;2024-03-06T07:49:30;23.08;;;9.50;;
74577;SDS011;75151;49.086;33.418;2024-03-06T07:51:57;20.83;;;8.30;;
74577;SDS011;75151;49.086;33.418;2024-03-06T07:54:24;22.58;;;9.80;;
74577;SDS011;75151;49.086;33.418;2024-03-06T07:56:51;23.55;;;9.32;;
74577;SDS011;75151;49.086;33.418;2024-03-06T07:59:18;25.08;;;8.32;;
74577;SDS011;75151;49.086;33.418;2024-03-06T08:01:46;25.20;;;8.85;;
74577;SDS011;75151;49.086;33.418;2024-03-06T08:04:13;18.63;;;8.02;;
74577;SDS011;75151;49.086;33.418;2024-03-06T08:06:40;16.77;;;8.48;;
74577;SDS011;75151;49.086;33.418;2024-03-06T08:09:07;18.17;;;8.13;;
74577;SDS011;75151;49.086;33.418;2024-03-06T08:11:34;22.65;;;9.20;;
74577;SDS011;75151;49.086;33.418;2024-03-06T08:14:01;30.58;;;8.77;;
74577;SDS011;75151;49.086;33.418;2024-03-06T08:16:32;27.17;;;6.70;;
74577;SDS011;75151;49.086;33.418;2024-03-06T08:19:02;25.20;;;8.75;;
74577;SDS011;75151;49.086;33.418;2024-03-06T08:21:29;21.15;;;8.75;;
74577;SDS011;75151;49.086;33.418;2024-03-06T08:23:56;20.00;;;9.30;;
74577;SDS011;75151;49.086;33.418;2024-03-06T08:26:23;26.17;;;8.48;;
74577;SDS011;75151;49.086;33.418;2024-03-06T08:28:50;21.70;;;8.75;;
74577;SDS011;75151;49.086;33.418;2024-03-06T08:31:18;29.40;;;9.27;;
74577;SDS011;75151;49.086;33.418;2024-03-06T08:33:45;20.20;;;8.98;;
74577;SDS011;75151;49.086;33.418;2024-03-06T08:36:12;26.35;;;9.40;;
74577;SDS011;75151;49.086;33.418;2024-03-06T08:38:40;31.40;;;9.20;;
74577;SDS011;75151;49.086;33.418;2024-03-06T08:41:09;21.38;;;8.65;;
74577;SDS011;75151;49.086;33.418;2024-03-06T08:43:36;18.05;;;7.63;;
74577;SDS011;75151;49.086;33.418;2024-03-06T08:46:03;17.27;;;7.80;;
74577;SDS011;75151;49.086;33.418;2024-03-06T08:48:30;26.15;;;9.40;;
74577;SDS011;75151;49.086;33.418;2024-03-06T08:50:57;24.85;;;8.48;;
74577;SDS011;75151;49.086;33.418;2024-03-06T08:53:24;29.52;;;8.45;;
74577;SDS011;75151;49.086;33.418;2024-03-06T08:55:51;20.70;;;9.05;;
74577;SDS011;75151;49.086;33.418;2024-03-06T08:58:18;27.05;;;9.57;;
74577;SDS011;75151;49.086;33.418;2024-03-06T09:03:15;18.20;;;7.93;;
74577;SDS011;75151;49.086;33.418;2024-03-06T09:05:42;22.80;;;8.75;;
74577;SDS011;75151;49.086;33.418;2024-03-06T09:08:09;24.80;;;10.02;;
74577;SDS011;75151;49.086;33.418;2024-03-06T09:10:38;23.08;;;10.18;;
74577;SDS011;75151;49.086;33.418;2024-03-06T09:13:05;25.73;;;11.25;;
74577;SDS011;75151;49.086;33.418;2024-03-06T09:15:32;35.58;;;9.75;;
74577;SDS011;75151;49.086;33.418;2024-03-06T09:17:58;29.90;;;10.68;;
74577;SDS011;75151;49.086;33.418;2024-03-06T09:20:26;25.88;;;10.50;;
74577;SDS011;75151;49.086;33.418;2024-03-06T09:22:52;29.52;;;9.48;;
74577;SDS011;75151;49.086;33.418;2024-03-06T09:25:23;28.15;;;10.88;;
74577;SDS011;75151;49.086;33.418;2024-03-06T09:27:55;26.98;;;11.20;;
74577;SDS011;75151;49.086;33.418;2024-03-06T09:30:22;27.38;;;11.77;;
74577;SDS011;75151;49.086;33.418;2024-03-06T09:32:48;29.88;;;12.98;;
74577;SDS011;75151;49.086;33.418;2024-03-06T09:35:15;27.77;;;10.27;;
74577;SDS011;75151;49.086;33.418;2024-03-06T09:37:44;31.45;;;12.05;;
74577;SDS011;75151;49.086;33.418;2024-03-06T09:40:19;35.22;;;12.07;;
74577;SDS011;75151;49.086;33.418;2024-03-06T09:42:48;33.53;;;11.27;;
74577;SDS011;75151;49.086;33.418;2024-03-06T09:45:16;34.28;;;12.40;;
74577;SDS011;75151;49.086;33.418;2024-03-06T09:47:43;25.20;;;10.23;;
74577;SDS011;75151;49.086;33.418;2024-03-06T09:50:11;30.17;;;11.45;;
74577;SDS011;75151;49.086;33.418;2024-03-06T09:52:42;30.85;;;10.75;;
74577;SDS011;75151;49.086;33.418;2024-03-06T09:55:12;25.80;;;10.52;;
74577;SDS011;75151;49.086;33.418;2024-03-06T10:02:41;29.55;;;10.18;;
74577;SDS011;75151;49.086;33.418;2024-03-06T10:05:20;21.77;;;8.05;;
74577;SDS011;75151;49.086;33.418;2024-03-06T10:07:49;31.70;;;10.32;;
74577;SDS011;75151;49.086;33.418;2024-03-06T10:10:18;21.77;;;9.43;;
74577;SDS011;75151;49.086;33.418;2024-03-06T10:15:14;32.22;;;10.02;;
74577;SDS011;75151;49.086;33.418;2024-03-06T10:17:41;31.75;;;9.25;;
74577;SDS011;75151;49.086;33.418;2024-03-06T10:20:22;21.95;;;9.32;;
74577;SDS011;75151;49.086;33.418;2024-03-06T10:22:50;26.45;;;9.82;;
74577;SDS011;75151;49.086;33.418;2024-03-06T10:25:24;24.33;;;9.70;;
74577;SDS011;75151;49.086;33.418;2024-03-06T10:28:06;32.10;;;12.60;;
74577;SDS011;75151;49.086;33.418;2024-03-06T10:30:36;23.40;;;10.25;;
74577;SDS011;75151;49.086;33.418;2024-03-06T10:33:09;25.65;;;10.18;;
74577;SDS011;75151;49.086;33.418;2024-03-06T10:35:36;25.85;;;8.55;;
74577;SDS011;75151;49.086;33.418;2024-03-06T10:38:04;27.30;;;9.52;;
74577;SDS011;75151;49.086;33.418;2024-03-06T10:40:33;20.67;;;9.80;;
74577;SDS011;75151;49.086;33.418;2024-03-06T10:43:02;23.23;;;10.07;;
74577;SDS011;75151;49.086;33.418;2024-03-06T10:48:05;21.20;;;8.77;;
74577;SDS011;75151;49.086;33.418;2024-03-06T10:50:33;24.58;;;9.52;;
74577;SDS011;75151;49.086;33.418;2024-03-06T10:53:10;24.90;;;9.27;;
74577;SDS011;75151;49.086;33.418;2024-03-06T10:55:42;30.98;;;10.05;;
74577;SDS011;75151;49.086;33.418;2024-03-06T10:58:13;23.70;;;10.50;;
74577;SDS011;75151;49.086;33.418;2024-03-06T11:00:41;28.85;;;9.77;;
74577;SDS011;75151;49.086;33.418;2024-03-06T11:03:10;27.08;;;11.20;;
74577;SDS011;75151;49.086;33.418;2024-03-06T11:05:41;27.92;;;10.50;;
74577;SDS011;75151;49.086;33.418;2024-03-06T11:08:10;28.00;;;9.57;;
74577;SDS011;75151;49.086;33.418;2024-03-06T11:10:39;44.58;;;10.90;;
74577;SDS011;75151;49.086;33.418;2024-03-06T11:15:37;32.53;;;11.98;;
74577;SDS011;75151;49.086;33.418;2024-03-06T11:23:25;40.55;;;14.25;;
74577;SDS011;75151;49.086;33.418;2024-03-06T11:28:22;51.25;;;17.27;;
74577;SDS011;75151;49.086;33.418;2024-03-06T11:31:03;33.55;;;13.20;;
74577;SDS011;75151;49.086;33.418;2024-03-06T11:33:35;33.13;;;11.52;;
74577;SDS011;75151;49.086;33.418;2024-03-06T11:44:06;45.40;;;16.02;;
74577;SDS011;75151;49.086;33.418;2024-03-06T11:49:22;43.25;;;15.52;;
74577;SDS011;75151;49.086;33.418;2024-03-06T11:51:54;53.15;;;18.55;;
74577;SDS011;75151;49.086;33.418;2024-03-06T11:54:31;58.85;;;18.08;;
74577;SDS011;75151;49.086;33.418;2024-03-06T11:57:00;38.70;;;13.05;;
74577;SDS011;75151;49.086;33.418;2024-03-06T11:59:29;36.58;;;11.73;;
74577;SDS011;75151;49.086;33.418;2024-03-06T12:01:59;29.45;;;11.85;;
74577;SDS011;75151;49.086;33.418;2024-03-06T12:04:29;35.03;;;13.65;;
74577;SDS011;75151;49.086;33.418;2024-03-06T12:06:57;44.30;;;17.42;;
74577;SDS011;75151;49.086;33.418;2024-03-06T12:09:36;50.95;;;16.63;;
74577;SDS011;75151;49.086;33.418;2024-03-06T12:12:08;38.10;;;13.07;;
74577;SDS011;75151;49.086;33.418;2024-03-06T12:14:36;35.65;;;12.07;;
74577;SDS011;75151;49.086;33.418;2024-03-06T12:17:10;36.88;;;11.65;;
74577;SDS011;75151;49.086;33.418;2024-03-06T12:19:40;40.50;;;11.93;;
74577;SDS011;75151;49.086;33.418;2024-03-06T12:22:10;37.05;;;13.55;;
74577;SDS011;75151;49.086;33.418;2024-03-06T12:24:37;30.70;;;12.45;;
74577;SDS011;75151;49.086;33.418;2024-03-06T12:27:04;57.28;;;13.20;;
74577;SDS011;75151;49.086;33.418;2024-03-06T12:29:34;36.25;;;12.10;;
74577;SDS011;75151;49.086;33.418;2024-03-06T12:32:02;44.20;;;15.68;;
74577;SDS011;75151;49.086;33.418;2024-03-06T12:34:30;52.90;;;14.80;;
74577;SDS011;75151;49.086;33.418;2024-03-06T12:37:10;46.47;;;14.20;;
74577;SDS011;75151;49.086;33.418;2024-03-06T12:39:38;33.63;;;11.25;;
74577;SDS011;75151;49.086;33.418;2024-03-06T12:42:09;39.25;;;11.77;;
74577;SDS011;75151;49.086;33.418;2024-03-06T12:44:36;33.83;;;12.80;;
74577;SDS011;75151;49.086;33.418;2024-03-06T12:47:03;46.72;;;14.45;;
74577;SDS011;75151;49.086;33.418;2024-03-06T12:49:29;42.78;;;15.13;;
74577;SDS011;75151;49.086;33.418;2024-03-06T12:51:56;36.53;;;13.02;;
74577;SDS011;75151;49.086;33.418;2024-03-06T12:54:25;44.42;;;15.18;;
74577;SDS011;75151;49.086;33.418;2024-03-06T12:56:52;39.35;;;13.23;;
74577;SDS011;75151;49.086;33.418;2024-03-06T12:59:19;39.78;;;12.50;;
74577;SDS011;75151;49.086;33.418;2024-03-06T13:01:46;35.13;;;13.18;;
74577;SDS011;75151;49.086;33.418;2024-03-06T13:04:13;34.53;;;13.43;;
74577;SDS011;75151;49.086;33.418;2024-03-06T13:06:40;30.60;;;10.70;;
74577;SDS011;75151;49.086;33.418;2024-03-06T13:09:07;40.60;;;12.55;;
74577;SDS011;75151;49.086;33.418;2024-03-06T13:11:34;33.35;;;12.50;;
74577;SDS011;75151;49.086;33.418;2024-03-06T13:14:01;37.17;;;13.63;;
74577;SDS011;75151;49.086;33.418;2024-03-06T13:16:28;38.83;;;13.45;;
74577;SDS011;75151;49.086;33.418;2024-03-06T13:18:55;45.83;;;14.57;;
74577;SDS011;75151;49.086;33.418;2024-03-06T13:23:50;31.92;;;13.00;;
74577;SDS011;75151;49.086;33.418;2024-03-06T13:26:17;42.30;;;15.65;;
74577;SDS011;75151;49.086;33.418;2024-03-06T13:28:44;49.47;;;17.15;;
74577;SDS011;75151;49.086;33.418;2024-03-06T13:31:12;43.47;;;16.75;;
74577;SDS011;75151;49.086;33.418;2024-03-06T13:33:39;34.83;;;15.10;;
74577;SDS011;75151;49.086;33.418;2024-03-06T13:36:06;34.00;;;14.00;;
74577;SDS011;75151;49.086;33.418;2024-03-06T13:38:34;37.92;;;14.55;;
74577;SDS011;75151;49.086;33.418;2024-03-06T13:41:01;38.83;;;14.32;;
74577;SDS011;75151;49.086;33.418;2024-03-06T13:43:29;37.58;;;13.25;;
74577;SDS011;75151;49.086;33.418;2024-03-06T13:45:56;51.55;;;15.98;;
74577;SDS011;75151;49.086;33.418;2024-03-06T13:48:23;52.95;;;13.23;;
74577;SDS011;75151;49.086;33.418;2024-03-06T13:50:50;35.70;;;11.90;;
74577;SDS011;75151;49.086;33.418;2024-03-06T13:53:17;38.88;;;13.27;;
74577;SDS011;75151;49.086;33.418;2024-03-06T13:55:43;49.95;;;16.10;;
74577;SDS011;75151;49.086;33.418;2024-03-06T13:58:10;39.67;;;15.10;;
74577;SDS011;75151;49.086;33.418;2024-03-06T14:00:38;43.20;;;15.40;;
74577;SDS011;75151;49.086;33.418;2024-03-06T14:03:05;37.45;;;14.60;;
74577;SDS011;75151;49.086;33.418;2024-03-06T14:05:31;37.78;;;14.00;;
74577;SDS011;75151;49.086;33.418;2024-03-06T14:07:58;45.00;;;12.35;;
74577;SDS011;75151;49.086;33.418;2024-03-06T14:10:27;41.95;;;11.63;;
74577;SDS011;75151;49.086;33.418;2024-03-06T14:12:54;50.95;;;14.68;;
74577;SDS011;75151;49.086;33.418;2024-03-06T14:15:22;35.80;;;13.93;;
74577;SDS011;75151;49.086;33.418;2024-03-06T14:17:50;45.00;;;13.45;;
74577;SDS011;75151;49.086;33.418;2024-03-06T14:20:17;40.95;;;13.95;;
74577;SDS011;75151;49.086;33.418;2024-03-06T14:22:44;40.58;;;13.20;;
74577;SDS011;75151;49.086;33.418;2024-03-06T14:25:11;30.65;;;11.43;;
74577;SDS011;75151;49.086;33.418;2024-03-06T14:27:38;38.55;;;12.98;;
74577;SDS011;75151;49.086;33.418;2024-03-06T14:30:06;49.50;;;14.85;;
74577;SDS011;75151;49.086;33.418;2024-03-06T14:32:33;31.92;;;12.10;;
74577;SDS011;75151;49.086;33.418;2024-03-06T14:35:00;38.60;;;14.35;;
74577;SDS011;75151;49.086;33.418;2024-03-06T14:37:27;39.03;;;13.57;;
74577;SDS011;75151;49.086;33.418;2024-03-06T14:39:57;39.40;;;13.90;;
74577;SDS011;75151;49.086;33.418;2024-03-06T14:42:27;32.78;;;12.95;;
74577;SDS011;75151;49.086;33.418;2024-03-06T14:44:53;36.97;;;14.07;;
74577;SDS011;75151;49.086;33.418;2024-03-06T14:47:20;30.02;;;11.35;;
74577;SDS011;75151;49.086;33.418;2024-03-06T14:49:47;33.53;;;12.80;;
74577;SDS011;75151;49.086;33.418;2024-03-06T14:52:14;35.67;;;15.43;;
74577;SDS011;75151;49.086;33.418;2024-03-06T14:54:40;68.15;;;12.07;;
74577;SDS011;75151;49.086;33.418;2024-03-06T14:57:10;35.38;;;11.20;;
74577;SDS011;75151;49.086;33.418;2024-03-06T14:59:38;26.83;;;10.73;;
74577;SDS011;75151;49.086;33.418;2024-03-06T15:02:05;34.03;;;9.57;;